FDA2061 RJFT-RJFM

Flight info

Callsign FDA2061
Flight time 0h 21m
Altitude 15000
Route MIFNE ENBEN
Aircraft E170/M-SDE3GILORVW/S

Departure

Time 2026-05-04 02:18
Airport Kumamoto Airport (RJFT)

Arrival

Time 2026-05-04 02:39
Airport Miyazaki Airport (RJFM)
Time Latitude Longitude Altitude Speed Heading
2026-05-04 01:58 32.83468 130.85712 636 ft 0 kts 155°
2026-05-04 02:07 32.83480 130.85706 637 ft 2 kts 155°
2026-05-04 02:07 32.83494 130.85698 637 ft 2 kts 155°
2026-05-04 02:08 32.83508 130.85690 637 ft 2 kts 154°
2026-05-04 02:08 32.83521 130.85683 637 ft 2 kts 154°
2026-05-04 02:08 32.83535 130.85675 636 ft 2 kts 154°
2026-05-04 02:08 32.83549 130.85667 636 ft 2 kts 154°
2026-05-04 02:09 32.83563 130.85660 636 ft 2 kts 154°
2026-05-04 02:09 32.83574 130.85652 636 ft 0 kts 154°
2026-05-04 02:09 32.83585 130.85643 636 ft 2 kts 126°
2026-05-04 02:09 32.83591 130.85626 636 ft 2 kts 96°
2026-05-04 02:10 32.83589 130.85609 636 ft 1 kts 67°
2026-05-04 02:10 32.83584 130.85596 636 ft 2 kts 66°
2026-05-04 02:10 32.83580 130.85585 636 ft 1 kts 65°
2026-05-04 02:10 32.83579 130.85584 636 ft 0 kts 65°
2026-05-04 02:12 32.83583 130.85593 636 ft 3 kts 65°
2026-05-04 02:12 32.83604 130.85646 636 ft 9 kts 65°
2026-05-04 02:12 32.83634 130.85722 637 ft 9 kts 64°
2026-05-04 02:12 32.83664 130.85794 639 ft 9 kts 64°
2026-05-04 02:13 32.83692 130.85864 640 ft 9 kts 64°
2026-05-04 02:13 32.83724 130.85941 640 ft 10 kts 64°
2026-05-04 02:13 32.83754 130.86018 641 ft 10 kts 67°
2026-05-04 02:13 32.83785 130.86098 641 ft 11 kts 64°
2026-05-04 02:14 32.83825 130.86195 640 ft 14 kts 64°
2026-05-04 02:14 32.83868 130.86302 641 ft 14 kts 65°
2026-05-04 02:14 32.83915 130.86420 638 ft 17 kts 65°
2026-05-04 02:14 32.83968 130.86551 638 ft 18 kts 65°
2026-05-04 02:15 32.84026 130.86696 637 ft 20 kts 65°
2026-05-04 02:15 32.84075 130.86816 638 ft 6 kts 64°
2026-05-04 02:15 32.84097 130.86867 638 ft 8 kts 62°
2026-05-04 02:15 32.84125 130.86934 638 ft 10 kts 65°
2026-05-04 02:16 32.84172 130.87001 637 ft 11 kts 15°
2026-05-04 02:16 32.84241 130.86981 639 ft 9 kts 334°
2026-05-04 02:16 32.84291 130.86954 640 ft 3 kts 334°
2026-05-04 02:16 32.84301 130.86937 641 ft 2 kts 275°
2026-05-04 02:17 32.84299 130.86922 641 ft 1 kts 249°
2026-05-04 02:17 32.84284 130.86885 642 ft 22 kts 244°
2026-05-04 02:17 32.84089 130.86394 642 ft 103 kts 245°
2026-05-04 02:17 32.83701 130.85425 860 ft 143 kts 246°
2026-05-04 02:18 32.83277 130.84352 1574 ft 148 kts 247°
2026-05-04 02:18 32.82844 130.83310 2373 ft 147 kts 250°
2026-05-04 02:18 32.82364 130.82103 2732 ft 176 kts 250°
2026-05-04 02:18 32.81795 130.80676 3121 ft 205 kts 250°
2026-05-04 02:19 32.80967 130.79216 3798 ft 231 kts 224°
2026-05-04 02:19 32.79391 130.78493 4380 ft 265 kts 194°
2026-05-04 02:19 32.77484 130.78236 5080 ft 280 kts 194°
2026-05-04 02:19 32.75539 130.77953 5903 ft 287 kts 194°
2026-05-04 02:20 32.73566 130.77647 6813 ft 290 kts 195°
2026-05-04 02:20 32.71595 130.77335 7768 ft 289 kts 196°
2026-05-04 02:20 32.69612 130.77017 8731 ft 288 kts 197°
2026-05-04 02:20 32.67642 130.76698 9656 ft 286 kts 197°
2026-05-04 02:21 32.65675 130.76390 10486 ft 289 kts 194°
2026-05-04 02:21 32.63634 130.76796 11136 ft 320 kts 165°
2026-05-04 02:21 32.61787 130.78442 11658 ft 353 kts 135°
2026-05-04 02:21 32.60337 130.80888 12172 ft 366 kts 132°
2026-05-04 02:22 32.58794 130.83339 12684 ft 374 kts 135°
2026-05-04 02:22 32.57197 130.85754 13325 ft 377 kts 136°
2026-05-04 02:22 32.55566 130.88174 13934 ft 381 kts 136°
2026-05-04 02:22 32.53915 130.90611 14638 ft 380 kts 137°
2026-05-04 02:23 32.52251 130.93057 14915 ft 381 kts 138°
2026-05-04 02:23 32.50526 130.95578 14965 ft 399 kts 137°
2026-05-04 02:23 32.48780 130.98145 14955 ft 405 kts 137°
2026-05-04 02:23 32.46976 131.00789 14940 ft 406 kts 138°
2026-05-04 02:24 32.45216 131.03366 14937 ft 405 kts 138°
2026-05-04 02:24 32.43429 131.05980 14940 ft 405 kts 138°
2026-05-04 02:24 32.41656 131.08571 14938 ft 407 kts 138°
2026-05-04 02:24 32.40021 131.11195 14916 ft 406 kts 125°
2026-05-04 02:25 32.39113 131.14444 14956 ft 421 kts 106°
2026-05-04 02:25 32.38574 131.17816 14959 ft 417 kts 105°
2026-05-04 02:25 32.38050 131.21188 14812 ft 420 kts 105°
2026-05-04 02:25 32.37526 131.24580 14364 ft 418 kts 104°
2026-05-04 02:26 32.37011 131.27922 13992 ft 416 kts 104°
2026-05-04 02:26 32.36496 131.31255 13564 ft 413 kts 104°
2026-05-04 02:26 32.35981 131.34584 13115 ft 408 kts 103°
2026-05-04 02:26 32.35473 131.37863 12732 ft 403 kts 102°
2026-05-04 02:27 32.34973 131.41081 12293 ft 400 kts 102°
2026-05-04 02:27 32.34476 131.44284 11860 ft 395 kts 103°
2026-05-04 02:27 32.33985 131.47427 11425 ft 386 kts 102°
2026-05-04 02:27 32.33505 131.50513 10992 ft 376 kts 102°
2026-05-04 02:28 32.33042 131.53468 10588 ft 364 kts 102°
2026-05-04 02:28 32.32586 131.56381 10192 ft 354 kts 102°
2026-05-04 02:28 32.31999 131.59128 9797 ft 340 kts 120°
2026-05-04 02:28 32.30593 131.61197 9505 ft 313 kts 153°
2026-05-04 02:29 32.28679 131.62256 9012 ft 301 kts 174°
2026-05-04 02:29 32.26671 131.62698 8632 ft 291 kts 181°
2026-05-04 02:29 32.24679 131.62932 8287 ft 280 kts 184°
2026-05-04 02:29 32.22758 131.63066 7968 ft 271 kts 185°
2026-05-04 02:30 32.20903 131.63156 7672 ft 262 kts 186°
2026-05-04 02:30 32.19121 131.63225 7389 ft 255 kts 186°
2026-05-04 02:30 32.17374 131.63283 7109 ft 248 kts 186°
2026-05-04 02:30 32.15645 131.63335 6831 ft 245 kts 186°
2026-05-04 02:31 32.13960 131.63384 6573 ft 245 kts 186°
2026-05-04 02:31 32.12229 131.63434 6300 ft 247 kts 186°
2026-05-04 02:31 32.10523 131.63483 6026 ft 247 kts 186°
2026-05-04 02:31 32.08812 131.63531 5755 ft 246 kts 185°
2026-05-04 02:32 32.07097 131.63582 5477 ft 243 kts 185°
2026-05-04 02:32 32.05412 131.63631 5208 ft 241 kts 185°
2026-05-04 02:32 32.03748 131.63678 4949 ft 240 kts 185°
2026-05-04 02:32 32.02059 131.63725 4639 ft 239 kts 185°
2026-05-04 02:33 32.00420 131.63773 4257 ft 237 kts 185°
2026-05-04 02:33 31.98779 131.63820 3842 ft 233 kts 186°
2026-05-04 02:33 31.97319 131.63382 3540 ft 202 kts 216°
2026-05-04 02:33 31.96179 131.62584 3262 ft 180 kts 220°
2026-05-04 02:34 31.95175 131.61859 3031 ft 164 kts 221°
2026-05-04 02:34 31.94240 131.61177 2943 ft 146 kts 223°
2026-05-04 02:34 31.93399 131.60556 2753 ft 140 kts 223°
2026-05-04 02:34 31.92560 131.59929 2595 ft 142 kts 223°
2026-05-04 02:35 31.91725 131.59308 2453 ft 142 kts 223°
2026-05-04 02:35 31.90880 131.58679 2295 ft 143 kts 223°
2026-05-04 02:35 31.90098 131.57993 2129 ft 137 kts 234°
2026-05-04 02:35 31.89435 131.57194 1959 ft 138 kts 236°
2026-05-04 02:36 31.88934 131.56351 1760 ft 113 kts 258°
2026-05-04 02:36 31.88688 131.55501 1586 ft 109 kts 260°
2026-05-04 02:36 31.88464 131.54662 1444 ft 105 kts 268°
2026-05-04 02:36 31.88387 131.53812 1325 ft 106 kts 269°
2026-05-04 02:37 31.88319 131.52948 1184 ft 107 kts 269°
2026-05-04 02:37 31.88251 131.52066 1026 ft 106 kts 269°
2026-05-04 02:37 31.88186 131.51215 888 ft 105 kts 269°
2026-05-04 02:37 31.88122 131.50357 741 ft 105 kts 268°
2026-05-04 02:38 31.88061 131.49498 606 ft 104 kts 268°
2026-05-04 02:38 31.88003 131.48665 474 ft 102 kts 266°
2026-05-04 02:38 31.87937 131.47832 334 ft 101 kts 266°
2026-05-04 02:38 31.87866 131.47002 206 ft 103 kts 266°
2026-05-04 02:39 31.87804 131.46172 80 ft 105 kts 268°
2026-05-04 02:39 31.87746 131.45342 29 ft 86 kts 264°
2026-05-04 02:39 31.87703 131.44800 29 ft 52 kts 265°
2026-05-04 02:39 31.87677 131.44600 29 ft 8 kts 234°
2026-05-04 02:40 31.87626 131.44585 29 ft 7 kts 175°
2026-05-04 02:40 31.87573 131.44586 29 ft 7 kts 189°
2026-05-04 02:40 31.87532 131.44559 29 ft 6 kts 231°
2026-05-04 02:40 31.87518 131.44502 29 ft 7 kts 266°
2026-05-04 02:41 31.87515 131.44437 29 ft 8 kts 267°
2026-05-04 02:41 31.87507 131.44367 29 ft 8 kts 262°
2026-05-04 02:41 31.87502 131.44296 29 ft 7 kts 252°
2026-05-04 02:41 31.87461 131.44279 29 ft 6 kts 167°
2026-05-04 02:42 31.87414 131.44286 29 ft 6 kts 175°
2026-05-04 02:42 31.87366 131.44290 29 ft 6 kts 175°
2026-05-04 02:42 31.87363 131.44290 29 ft 0 kts 175°